sensor_id;sensor_type;location;lat;lon;timestamp;P1;durP1;ratioP1;P2;durP2;ratioP2
9260;SDS011;4667;42.726;23.252;2022-10-16T00:02:24;5.23;;;4.20;;
9260;SDS011;4667;42.726;23.252;2022-10-16T00:04:51;6.60;;;4.17;;
9260;SDS011;4667;42.726;23.252;2022-10-16T00:07:19;6.33;;;4.30;;
9260;SDS011;4667;42.726;23.252;2022-10-16T00:09:46;4.93;;;3.80;;
9260;SDS011;4667;42.726;23.252;2022-10-16T00:12:13;7.23;;;4.93;;
9260;SDS011;4667;42.726;23.252;2022-10-16T00:14:41;5.17;;;4.50;;
9260;SDS011;4667;42.726;23.252;2022-10-16T00:17:09;8.30;;;4.27;;
9260;SDS011;4667;42.726;23.252;2022-10-16T00:19:35;5.73;;;3.90;;
9260;SDS011;4667;42.726;23.252;2022-10-16T00:22:02;4.33;;;3.80;;
9260;SDS011;4667;42.726;23.252;2022-10-16T00:24:29;6.63;;;3.90;;
9260;SDS011;4667;42.726;23.252;2022-10-16T00:26:55;6.20;;;4.73;;
9260;SDS011;4667;42.726;23.252;2022-10-16T00:29:22;6.43;;;3.97;;
9260;SDS011;4667;42.726;23.252;2022-10-16T00:31:50;5.20;;;3.63;;
9260;SDS011;4667;42.726;23.252;2022-10-16T00:34:17;5.50;;;3.57;;
9260;SDS011;4667;42.726;23.252;2022-10-16T00:36:44;4.50;;;3.43;;
9260;SDS011;4667;42.726;23.252;2022-10-16T00:39:11;5.33;;;3.80;;
9260;SDS011;4667;42.726;23.252;2022-10-16T00:41:38;7.27;;;3.63;;
9260;SDS011;4667;42.726;23.252;2022-10-16T00:47:07;4.23;;;3.47;;
9260;SDS011;4667;42.726;23.252;2022-10-16T00:49:35;5.57;;;3.80;;
9260;SDS011;4667;42.726;23.252;2022-10-16T00:52:02;4.70;;;3.37;;
9260;SDS011;4667;42.726;23.252;2022-10-16T00:54:30;6.27;;;3.80;;
9260;SDS011;4667;42.726;23.252;2022-10-16T00:56:59;4.53;;;3.67;;
9260;SDS011;4667;42.726;23.252;2022-10-16T00:59:28;5.87;;;4.20;;
9260;SDS011;4667;42.726;23.252;2022-10-16T01:01:57;4.93;;;3.77;;
9260;SDS011;4667;42.726;23.252;2022-10-16T01:04:26;7.10;;;4.00;;
9260;SDS011;4667;42.726;23.252;2022-10-16T01:06:58;5.23;;;3.70;;
9260;SDS011;4667;42.726;23.252;2022-10-16T01:09:34;4.23;;;3.63;;
9260;SDS011;4667;42.726;23.252;2022-10-16T01:12:08;4.17;;;3.43;;
9260;SDS011;4667;42.726;23.252;2022-10-16T01:14:42;8.47;;;4.27;;
9260;SDS011;4667;42.726;23.252;2022-10-16T01:17:15;6.30;;;4.33;;
9260;SDS011;4667;42.726;23.252;2022-10-16T01:19:53;6.10;;;4.20;;
9260;SDS011;4667;42.726;23.252;2022-10-16T01:22:38;4.77;;;4.13;;
9260;SDS011;4667;42.726;23.252;2022-10-16T01:25:16;6.97;;;5.57;;
9260;SDS011;4667;42.726;23.252;2022-10-16T01:27:51;9.20;;;5.23;;
9260;SDS011;4667;42.726;23.252;2022-10-16T01:30:21;7.13;;;5.10;;
9260;SDS011;4667;42.726;23.252;2022-10-16T01:32:53;8.87;;;4.53;;
9260;SDS011;4667;42.726;23.252;2022-10-16T01:35:23;5.67;;;4.63;;
9260;SDS011;4667;42.726;23.252;2022-10-16T01:37:56;6.83;;;4.67;;
9260;SDS011;4667;42.726;23.252;2022-10-16T01:40:28;6.90;;;4.77;;
9260;SDS011;4667;42.726;23.252;2022-10-16T01:43:00;7.27;;;4.53;;
9260;SDS011;4667;42.726;23.252;2022-10-16T01:45:31;8.27;;;5.17;;
9260;SDS011;4667;42.726;23.252;2022-10-16T01:48:00;6.13;;;4.90;;
9260;SDS011;4667;42.726;23.252;2022-10-16T01:50:30;4.63;;;3.80;;
9260;SDS011;4667;42.726;23.252;2022-10-16T01:52:59;6.60;;;4.77;;
9260;SDS011;4667;42.726;23.252;2022-10-16T01:55:32;6.63;;;4.27;;
9260;SDS011;4667;42.726;23.252;2022-10-16T01:58:05;5.47;;;4.23;;
9260;SDS011;4667;42.726;23.252;2022-10-16T02:00:35;8.27;;;4.77;;
9260;SDS011;4667;42.726;23.252;2022-10-16T02:03:04;6.57;;;4.43;;
9260;SDS011;4667;42.726;23.252;2022-10-16T02:05:34;7.33;;;4.50;;
9260;SDS011;4667;42.726;23.252;2022-10-16T02:08:06;7.27;;;4.10;;
9260;SDS011;4667;42.726;23.252;2022-10-16T02:10:34;7.83;;;3.80;;
9260;SDS011;4667;42.726;23.252;2022-10-16T02:13:03;14.50;;;4.77;;
9260;SDS011;4667;42.726;23.252;2022-10-16T02:15:35;5.30;;;3.90;;
9260;SDS011;4667;42.726;23.252;2022-10-16T02:18:02;6.10;;;4.27;;
9260;SDS011;4667;42.726;23.252;2022-10-16T02:20:32;5.60;;;4.47;;
9260;SDS011;4667;42.726;23.252;2022-10-16T02:23:02;6.77;;;4.03;;
9260;SDS011;4667;42.726;23.252;2022-10-16T02:25:30;5.53;;;3.97;;
9260;SDS011;4667;42.726;23.252;2022-10-16T02:28:02;8.03;;;3.87;;
9260;SDS011;4667;42.726;23.252;2022-10-16T02:30:34;6.07;;;4.07;;
9260;SDS011;4667;42.726;23.252;2022-10-16T02:33:05;4.07;;;2.77;;
9260;SDS011;4667;42.726;23.252;2022-10-16T02:35:35;5.97;;;3.60;;
9260;SDS011;4667;42.726;23.252;2022-10-16T02:38:02;6.40;;;3.97;;
9260;SDS011;4667;42.726;23.252;2022-10-16T02:40:30;4.80;;;3.43;;
9260;SDS011;4667;42.726;23.252;2022-10-16T02:42:57;6.70;;;3.57;;
9260;SDS011;4667;42.726;23.252;2022-10-16T02:45:24;5.17;;;3.53;;
9260;SDS011;4667;42.726;23.252;2022-10-16T02:47:52;5.40;;;3.57;;
9260;SDS011;4667;42.726;23.252;2022-10-16T02:50:19;4.43;;;3.07;;
9260;SDS011;4667;42.726;23.252;2022-10-16T02:52:47;8.43;;;4.17;;
9260;SDS011;4667;42.726;23.252;2022-10-16T02:55:14;6.63;;;4.10;;
9260;SDS011;4667;42.726;23.252;2022-10-16T02:57:41;5.30;;;4.07;;
9260;SDS011;4667;42.726;23.252;2022-10-16T03:00:08;5.17;;;3.07;;
9260;SDS011;4667;42.726;23.252;2022-10-16T03:02:38;5.70;;;4.17;;
9260;SDS011;4667;42.726;23.252;2022-10-16T03:05:07;6.50;;;4.13;;
9260;SDS011;4667;42.726;23.252;2022-10-16T03:07:34;6.03;;;3.87;;
9260;SDS011;4667;42.726;23.252;2022-10-16T03:10:01;4.90;;;4.00;;
9260;SDS011;4667;42.726;23.252;2022-10-16T03:12:37;4.27;;;3.70;;
9260;SDS011;4667;42.726;23.252;2022-10-16T03:15:03;4.20;;;3.77;;
9260;SDS011;4667;42.726;23.252;2022-10-16T03:17:31;7.17;;;3.93;;
9260;SDS011;4667;42.726;23.252;2022-10-16T03:19:59;5.13;;;3.97;;
9260;SDS011;4667;42.726;23.252;2022-10-16T03:22:28;4.20;;;3.30;;
9260;SDS011;4667;42.726;23.252;2022-10-16T03:24:54;5.37;;;3.93;;
9260;SDS011;4667;42.726;23.252;2022-10-16T03:27:21;7.33;;;4.20;;
9260;SDS011;4667;42.726;23.252;2022-10-16T03:29:48;4.87;;;3.30;;
9260;SDS011;4667;42.726;23.252;2022-10-16T03:32:14;5.57;;;4.07;;
9260;SDS011;4667;42.726;23.252;2022-10-16T03:34:41;5.43;;;3.93;;
9260;SDS011;4667;42.726;23.252;2022-10-16T03:37:08;4.17;;;3.40;;
9260;SDS011;4667;42.726;23.252;2022-10-16T03:39:36;3.87;;;3.27;;
9260;SDS011;4667;42.726;23.252;2022-10-16T03:42:03;6.77;;;3.90;;
9260;SDS011;4667;42.726;23.252;2022-10-16T03:44:30;4.53;;;2.90;;
9260;SDS011;4667;42.726;23.252;2022-10-16T03:46:56;4.03;;;3.37;;
9260;SDS011;4667;42.726;23.252;2022-10-16T03:49:23;5.73;;;4.63;;
9260;SDS011;4667;42.726;23.252;2022-10-16T03:51:50;4.67;;;4.03;;
9260;SDS011;4667;42.726;23.252;2022-10-16T03:54:17;5.83;;;3.27;;
9260;SDS011;4667;42.726;23.252;2022-10-16T03:56:45;5.20;;;3.77;;
9260;SDS011;4667;42.726;23.252;2022-10-16T03:59:12;5.33;;;3.67;;
9260;SDS011;4667;42.726;23.252;2022-10-16T04:01:39;5.13;;;4.03;;
9260;SDS011;4667;42.726;23.252;2022-10-16T04:04:06;3.67;;;3.33;;
9260;SDS011;4667;42.726;23.252;2022-10-16T04:06:32;4.77;;;3.90;;
9260;SDS011;4667;42.726;23.252;2022-10-16T04:08:59;4.13;;;3.60;;
9260;SDS011;4667;42.726;23.252;2022-10-16T04:11:26;4.67;;;3.57;;
9260;SDS011;4667;42.726;23.252;2022-10-16T04:13:54;6.70;;;4.30;;
9260;SDS011;4667;42.726;23.252;2022-10-16T04:16:21;5.37;;;4.23;;
9260;SDS011;4667;42.726;23.252;2022-10-16T04:18:47;5.07;;;3.70;;
9260;SDS011;4667;42.726;23.252;2022-10-16T04:21:14;4.77;;;3.83;;
9260;SDS011;4667;42.726;23.252;2022-10-16T04:23:41;5.57;;;4.27;;
9260;SDS011;4667;42.726;23.252;2022-10-16T04:26:08;4.63;;;3.20;;
9260;SDS011;4667;42.726;23.252;2022-10-16T04:28:35;5.13;;;3.50;;
9260;SDS011;4667;42.726;23.252;2022-10-16T04:31:04;5.40;;;3.87;;
9260;SDS011;4667;42.726;23.252;2022-10-16T04:33:31;6.33;;;3.43;;
9260;SDS011;4667;42.726;23.252;2022-10-16T04:36:01;4.17;;;3.33;;
9260;SDS011;4667;42.726;23.252;2022-10-16T04:38:29;4.57;;;3.57;;
9260;SDS011;4667;42.726;23.252;2022-10-16T04:40:55;4.70;;;4.10;;
9260;SDS011;4667;42.726;23.252;2022-10-16T04:43:25;4.07;;;3.43;;
9260;SDS011;4667;42.726;23.252;2022-10-16T04:45:51;5.50;;;2.97;;
9260;SDS011;4667;42.726;23.252;2022-10-16T04:48:21;9.53;;;4.20;;
9260;SDS011;4667;42.726;23.252;2022-10-16T04:50:48;7.17;;;3.93;;
9260;SDS011;4667;42.726;23.252;2022-10-16T04:53:15;6.23;;;4.53;;
9260;SDS011;4667;42.726;23.252;2022-10-16T04:55:41;5.53;;;4.43;;
9260;SDS011;4667;42.726;23.252;2022-10-16T04:58:08;5.57;;;4.53;;
9260;SDS011;4667;42.726;23.252;2022-10-16T05:00:35;4.00;;;3.60;;
9260;SDS011;4667;42.726;23.252;2022-10-16T05:03:03;6.30;;;3.83;;
9260;SDS011;4667;42.726;23.252;2022-10-16T05:05:34;4.67;;;3.40;;
9260;SDS011;4667;42.726;23.252;2022-10-16T05:08:01;5.53;;;4.30;;
9260;SDS011;4667;42.726;23.252;2022-10-16T05:10:29;4.13;;;3.70;;
9260;SDS011;4667;42.726;23.252;2022-10-16T05:12:55;5.77;;;4.20;;
9260;SDS011;4667;42.726;23.252;2022-10-16T05:15:22;7.07;;;4.20;;
9260;SDS011;4667;42.726;23.252;2022-10-16T05:17:52;5.10;;;3.73;;
9260;SDS011;4667;42.726;23.252;2022-10-16T05:20:19;6.57;;;5.03;;
9260;SDS011;4667;42.726;23.252;2022-10-16T05:22:47;6.13;;;4.10;;
9260;SDS011;4667;42.726;23.252;2022-10-16T05:25:14;6.47;;;3.90;;
9260;SDS011;4667;42.726;23.252;2022-10-16T05:27:41;7.33;;;4.27;;
9260;SDS011;4667;42.726;23.252;2022-10-16T05:30:08;5.10;;;3.53;;
9260;SDS011;4667;42.726;23.252;2022-10-16T05:32:35;6.77;;;4.03;;
9260;SDS011;4667;42.726;23.252;2022-10-16T05:35:02;5.73;;;4.37;;
9260;SDS011;4667;42.726;23.252;2022-10-16T05:37:29;6.00;;;4.33;;
9260;SDS011;4667;42.726;23.252;2022-10-16T05:39:57;5.90;;;4.00;;
9260;SDS011;4667;42.726;23.252;2022-10-16T05:42:24;7.80;;;4.80;;
9260;SDS011;4667;42.726;23.252;2022-10-16T05:44:52;4.93;;;4.07;;
9260;SDS011;4667;42.726;23.252;2022-10-16T05:47:20;6.97;;;4.60;;
9260;SDS011;4667;42.726;23.252;2022-10-16T05:49:47;5.33;;;3.93;;
9260;SDS011;4667;42.726;23.252;2022-10-16T05:52:14;4.23;;;3.80;;
9260;SDS011;4667;42.726;23.252;2022-10-16T05:54:40;5.67;;;4.17;;
9260;SDS011;4667;42.726;23.252;2022-10-16T05:57:09;8.53;;;5.30;;
9260;SDS011;4667;42.726;23.252;2022-10-16T05:59:36;5.27;;;4.17;;
9260;SDS011;4667;42.726;23.252;2022-10-16T06:02:03;5.37;;;3.77;;
9260;SDS011;4667;42.726;23.252;2022-10-16T06:04:30;8.87;;;3.47;;
9260;SDS011;4667;42.726;23.252;2022-10-16T06:06:57;6.40;;;3.93;;
9260;SDS011;4667;42.726;23.252;2022-10-16T06:09:25;9.57;;;3.77;;
9260;SDS011;4667;42.726;23.252;2022-10-16T06:11:54;7.33;;;4.87;;
9260;SDS011;4667;42.726;23.252;2022-10-16T06:14:23;6.03;;;4.23;;
9260;SDS011;4667;42.726;23.252;2022-10-16T06:16:50;5.70;;;3.93;;
9260;SDS011;4667;42.726;23.252;2022-10-16T06:19:16;5.87;;;3.70;;
9260;SDS011;4667;42.726;23.252;2022-10-16T06:21:43;4.67;;;4.13;;
9260;SDS011;4667;42.726;23.252;2022-10-16T06:24:10;9.53;;;4.13;;
9260;SDS011;4667;42.726;23.252;2022-10-16T06:26:37;4.10;;;3.70;;
9260;SDS011;4667;42.726;23.252;2022-10-16T06:29:04;6.10;;;3.97;;
9260;SDS011;4667;42.726;23.252;2022-10-16T06:31:32;4.97;;;3.50;;
9260;SDS011;4667;42.726;23.252;2022-10-16T06:33:59;5.53;;;3.90;;
9260;SDS011;4667;42.726;23.252;2022-10-16T06:36:27;13.23;;;4.50;;
9260;SDS011;4667;42.726;23.252;2022-10-16T06:38:54;5.73;;;4.17;;
9260;SDS011;4667;42.726;23.252;2022-10-16T06:41:21;6.93;;;3.73;;
9260;SDS011;4667;42.726;23.252;2022-10-16T06:43:49;6.37;;;4.20;;
9260;SDS011;4667;42.726;23.252;2022-10-16T06:46:16;5.40;;;4.70;;
9260;SDS011;4667;42.726;23.252;2022-10-16T06:48:46;6.33;;;4.63;;
9260;SDS011;4667;42.726;23.252;2022-10-16T06:51:14;7.30;;;3.77;;
9260;SDS011;4667;42.726;23.252;2022-10-16T06:53:42;6.73;;;5.07;;
9260;SDS011;4667;42.726;23.252;2022-10-16T06:56:10;5.80;;;4.50;;
9260;SDS011;4667;42.726;23.252;2022-10-16T06:58:39;5.30;;;4.07;;
9260;SDS011;4667;42.726;23.252;2022-10-16T07:01:07;6.67;;;4.57;;
9260;SDS011;4667;42.726;23.252;2022-10-16T07:03:35;10.60;;;7.30;;
9260;SDS011;4667;42.726;23.252;2022-10-16T07:06:06;10.20;;;3.83;;
9260;SDS011;4667;42.726;23.252;2022-10-16T07:08:36;4.20;;;3.80;;
9260;SDS011;4667;42.726;23.252;2022-10-16T07:11:05;6.40;;;4.33;;
9260;SDS011;4667;42.726;23.252;2022-10-16T07:13:33;7.23;;;4.50;;
9260;SDS011;4667;42.726;23.252;2022-10-16T07:16:03;6.83;;;4.83;;
9260;SDS011;4667;42.726;23.252;2022-10-16T07:18:31;5.23;;;4.30;;
9260;SDS011;4667;42.726;23.252;2022-10-16T07:21:02;6.60;;;5.10;;
9260;SDS011;4667;42.726;23.252;2022-10-16T07:23:31;5.57;;;4.00;;
9260;SDS011;4667;42.726;23.252;2022-10-16T07:25:58;6.90;;;4.57;;
9260;SDS011;4667;42.726;23.252;2022-10-16T07:28:25;5.83;;;3.87;;
9260;SDS011;4667;42.726;23.252;2022-10-16T07:30:52;4.33;;;3.90;;
9260;SDS011;4667;42.726;23.252;2022-10-16T07:33:18;4.53;;;3.53;;
9260;SDS011;4667;42.726;23.252;2022-10-16T07:35:48;4.07;;;3.57;;
9260;SDS011;4667;42.726;23.252;2022-10-16T07:38:17;5.00;;;3.47;;
9260;SDS011;4667;42.726;23.252;2022-10-16T07:40:44;9.10;;;4.23;;
9260;SDS011;4667;42.726;23.252;2022-10-16T07:43:11;4.43;;;3.90;;
9260;SDS011;4667;42.726;23.252;2022-10-16T07:45:46;6.03;;;4.77;;
9260;SDS011;4667;42.726;23.252;2022-10-16T07:48:14;3.60;;;3.30;;
9260;SDS011;4667;42.726;23.252;2022-10-16T07:50:40;5.00;;;3.83;;
9260;SDS011;4667;42.726;23.252;2022-10-16T07:53:07;5.57;;;4.17;;
9260;SDS011;4667;42.726;23.252;2022-10-16T07:55:36;3.77;;;3.40;;
9260;SDS011;4667;42.726;23.252;2022-10-16T07:58:02;4.83;;;3.97;;
9260;SDS011;4667;42.726;23.252;2022-10-16T08:00:30;6.43;;;4.07;;
9260;SDS011;4667;42.726;23.252;2022-10-16T08:02:57;7.13;;;3.90;;
9260;SDS011;4667;42.726;23.252;2022-10-16T08:05:25;6.93;;;5.07;;
9260;SDS011;4667;42.726;23.252;2022-10-16T08:07:52;8.97;;;4.67;;
9260;SDS011;4667;42.726;23.252;2022-10-16T08:10:20;6.03;;;3.70;;
9260;SDS011;4667;42.726;23.252;2022-10-16T08:12:49;5.83;;;3.80;;
9260;SDS011;4667;42.726;23.252;2022-10-16T08:15:16;4.30;;;3.77;;
9260;SDS011;4667;42.726;23.252;2022-10-16T08:17:43;4.37;;;3.33;;
9260;SDS011;4667;42.726;23.252;2022-10-16T08:20:10;5.10;;;3.88;;
9260;SDS011;4667;42.726;23.252;2022-10-16T08:22:38;4.23;;;3.50;;
9260;SDS011;4667;42.726;23.252;2022-10-16T08:25:05;4.93;;;3.55;;
9260;SDS011;4667;42.726;23.252;2022-10-16T08:27:32;4.38;;;3.10;;
9260;SDS011;4667;42.726;23.252;2022-10-16T08:30:00;6.10;;;3.45;;
9260;SDS011;4667;42.726;23.252;2022-10-16T08:32:27;5.55;;;3.63;;
9260;SDS011;4667;42.726;23.252;2022-10-16T08:34:53;7.07;;;4.18;;
9260;SDS011;4667;42.726;23.252;2022-10-16T08:37:20;6.38;;;4.03;;
9260;SDS011;4667;42.726;23.252;2022-10-16T08:39:47;6.22;;;4.43;;
9260;SDS011;4667;42.726;23.252;2022-10-16T08:42:27;5.90;;;3.85;;
9260;SDS011;4667;42.726;23.252;2022-10-16T08:45:13;6.28;;;3.85;;
9260;SDS011;4667;42.726;23.252;2022-10-16T08:48:00;4.63;;;3.03;;
9260;SDS011;4667;42.726;23.252;2022-10-16T08:50:38;4.22;;;2.45;;
9260;SDS011;4667;42.726;23.252;2022-10-16T08:53:06;3.97;;;2.77;;
9260;SDS011;4667;42.726;23.252;2022-10-16T08:55:37;3.60;;;3.00;;
9260;SDS011;4667;42.726;23.252;2022-10-16T08:58:10;3.37;;;2.63;;
9260;SDS011;4667;42.726;23.252;2022-10-16T09:00:40;3.43;;;2.40;;
9260;SDS011;4667;42.726;23.252;2022-10-16T09:03:13;3.60;;;2.20;;
9260;SDS011;4667;42.726;23.252;2022-10-16T09:08:43;4.23;;;2.47;;
9260;SDS011;4667;42.726;23.252;2022-10-16T09:11:21;2.70;;;2.13;;
9260;SDS011;4667;42.726;23.252;2022-10-16T09:13:57;5.20;;;2.40;;
9260;SDS011;4667;42.726;23.252;2022-10-16T09:16:32;2.77;;;2.40;;
9260;SDS011;4667;42.726;23.252;2022-10-16T09:19:04;2.03;;;1.75;;
9260;SDS011;4667;42.726;23.252;2022-10-16T09:21:39;2.53;;;2.30;;
9260;SDS011;4667;42.726;23.252;2022-10-16T09:24:09;3.60;;;2.07;;
9260;SDS011;4667;42.726;23.252;2022-10-16T09:26:39;2.53;;;1.83;;
9260;SDS011;4667;42.726;23.252;2022-10-16T09:29:08;3.25;;;1.92;;
9260;SDS011;4667;42.726;23.252;2022-10-16T09:31:37;2.72;;;2.28;;
9260;SDS011;4667;42.726;23.252;2022-10-16T09:34:04;3.10;;;2.10;;
9260;SDS011;4667;42.726;23.252;2022-10-16T09:36:36;2.67;;;2.15;;
9260;SDS011;4667;42.726;23.252;2022-10-16T09:39:08;2.30;;;1.98;;
9260;SDS011;4667;42.726;23.252;2022-10-16T09:41:37;3.70;;;2.15;;
9260;SDS011;4667;42.726;23.252;2022-10-16T09:44:06;3.08;;;2.05;;
9260;SDS011;4667;42.726;23.252;2022-10-16T09:46:47;3.03;;;2.22;;
9260;SDS011;4667;42.726;23.252;2022-10-16T09:49:26;2.60;;;1.85;;
9260;SDS011;4667;42.726;23.252;2022-10-16T09:52:02;2.35;;;1.80;;
9260;SDS011;4667;42.726;23.252;2022-10-16T09:54:30;4.22;;;1.88;;
9260;SDS011;4667;42.726;23.252;2022-10-16T09:57:03;2.42;;;1.90;;
9260;SDS011;4667;42.726;23.252;2022-10-16T10:02:01;3.38;;;2.60;;
9260;SDS011;4667;42.726;23.252;2022-10-16T10:04:37;2.17;;;1.60;;
9260;SDS011;4667;42.726;23.252;2022-10-16T10:07:07;2.78;;;1.58;;
9260;SDS011;4667;42.726;23.252;2022-10-16T10:09:45;3.50;;;1.98;;
9260;SDS011;4667;42.726;23.252;2022-10-16T10:12:17;4.93;;;2.95;;
9260;SDS011;4667;42.726;23.252;2022-10-16T10:14:46;1.98;;;1.88;;
9260;SDS011;4667;42.726;23.252;2022-10-16T10:17:17;2.60;;;2.08;;
9260;SDS011;4667;42.726;23.252;2022-10-16T10:19:50;3.67;;;2.00;;
9260;SDS011;4667;42.726;23.252;2022-10-16T10:22:19;2.72;;;1.63;;
9260;SDS011;4667;42.726;23.252;2022-10-16T10:24:55;2.50;;;1.65;;
9260;SDS011;4667;42.726;23.252;2022-10-16T10:27:24;3.75;;;1.88;;
9260;SDS011;4667;42.726;23.252;2022-10-16T10:30:02;2.03;;;1.77;;
9260;SDS011;4667;42.726;23.252;2022-10-16T10:32:39;4.15;;;2.00;;
9260;SDS011;4667;42.726;23.252;2022-10-16T10:35:14;2.70;;;1.48;;
9260;SDS011;4667;42.726;23.252;2022-10-16T10:37:57;4.85;;;1.85;;
9260;SDS011;4667;42.726;23.252;2022-10-16T10:40:34;4.28;;;2.08;;
9260;SDS011;4667;42.726;23.252;2022-10-16T10:43:11;3.63;;;2.28;;
9260;SDS011;4667;42.726;23.252;2022-10-16T10:45:52;1.98;;;1.58;;
9260;SDS011;4667;42.726;23.252;2022-10-16T10:48:29;2.63;;;1.90;;
9260;SDS011;4667;42.726;23.252;2022-10-16T10:51:13;4.63;;;1.90;;
9260;SDS011;4667;42.726;23.252;2022-10-16T10:53:48;2.17;;;1.60;;
9260;SDS011;4667;42.726;23.252;2022-10-16T10:56:39;3.53;;;1.88;;
9260;SDS011;4667;42.726;23.252;2022-10-16T11:02:18;3.15;;;2.00;;
9260;SDS011;4667;42.726;23.252;2022-10-16T11:04:57;3.03;;;1.88;;
9260;SDS011;4667;42.726;23.252;2022-10-16T11:07:42;2.42;;;1.75;;
9260;SDS011;4667;42.726;23.252;2022-10-16T11:10:15;2.55;;;2.15;;
9260;SDS011;4667;42.726;23.252;2022-10-16T11:12:47;2.42;;;1.60;;
9260;SDS011;4667;42.726;23.252;2022-10-16T11:15:18;1.90;;;1.60;;
9260;SDS011;4667;42.726;23.252;2022-10-16T11:17:50;2.80;;;2.10;;
9260;SDS011;4667;42.726;23.252;2022-10-16T11:20:24;3.20;;;1.60;;
9260;SDS011;4667;42.726;23.252;2022-10-16T11:22:54;2.90;;;2.10;;
9260;SDS011;4667;42.726;23.252;2022-10-16T11:25:26;2.05;;;1.77;;
9260;SDS011;4667;42.726;23.252;2022-10-16T11:27:55;3.08;;;1.95;;
9260;SDS011;4667;42.726;23.252;2022-10-16T11:30:28;2.22;;;1.83;;
9260;SDS011;4667;42.726;23.252;2022-10-16T11:33:00;2.40;;;1.70;;
9260;SDS011;4667;42.726;23.252;2022-10-16T11:35:41;2.15;;;1.48;;
9260;SDS011;4667;42.726;23.252;2022-10-16T11:38:15;2.45;;;1.52;;
9260;SDS011;4667;42.726;23.252;2022-10-16T11:40:50;2.08;;;1.88;;
9260;SDS011;4667;42.726;23.252;2022-10-16T11:43:24;2.67;;;1.80;;
9260;SDS011;4667;42.726;23.252;2022-10-16T11:45:54;2.47;;;1.33;;
9260;SDS011;4667;42.726;23.252;2022-10-16T11:48:25;2.67;;;1.70;;
9260;SDS011;4667;42.726;23.252;2022-10-16T11:50:58;2.08;;;1.77;;
9260;SDS011;4667;42.726;23.252;2022-10-16T11:53:35;2.60;;;1.90;;
9260;SDS011;4667;42.726;23.252;2022-10-16T11:56:11;1.70;;;1.60;;
9260;SDS011;4667;42.726;23.252;2022-10-16T11:58:41;2.63;;;1.63;;
9260;SDS011;4667;42.726;23.252;2022-10-16T12:01:17;2.05;;;1.83;;
9260;SDS011;4667;42.726;23.252;2022-10-16T12:03:51;2.33;;;1.60;;
9260;SDS011;4667;42.726;23.252;2022-10-16T12:06:32;3.50;;;2.40;;
9260;SDS011;4667;42.726;23.252;2022-10-16T12:09:03;1.73;;;1.55;;
9260;SDS011;4667;42.726;23.252;2022-10-16T12:11:32;2.15;;;1.38;;
9260;SDS011;4667;42.726;23.252;2022-10-16T12:17:01;2.58;;;1.60;;
9260;SDS011;4667;42.726;23.252;2022-10-16T12:19:31;2.35;;;2.05;;
9260;SDS011;4667;42.726;23.252;2022-10-16T12:22:00;1.80;;;1.55;;
9260;SDS011;4667;42.726;23.252;2022-10-16T12:24:31;2.88;;;1.90;;
9260;SDS011;4667;42.726;23.252;2022-10-16T12:27:01;3.15;;;1.85;;
9260;SDS011;4667;42.726;23.252;2022-10-16T12:29:33;3.33;;;1.75;;
9260;SDS011;4667;42.726;23.252;2022-10-16T12:32:02;3.08;;;2.10;;
9260;SDS011;4667;42.726;23.252;2022-10-16T12:34:34;2.67;;;1.58;;
9260;SDS011;4667;42.726;23.252;2022-10-16T12:37:10;2.45;;;1.67;;
9260;SDS011;4667;42.726;23.252;2022-10-16T12:39:47;2.30;;;1.33;;
9260;SDS011;4667;42.726;23.252;2022-10-16T12:42:31;2.53;;;1.20;;
9260;SDS011;4667;42.726;23.252;2022-10-16T12:45:00;2.95;;;1.73;;
9260;SDS011;4667;42.726;23.252;2022-10-16T12:47:38;1.73;;;1.52;;
9260;SDS011;4667;42.726;23.252;2022-10-16T12:50:28;1.88;;;1.38;;
9260;SDS011;4667;42.726;23.252;2022-10-16T12:52:59;1.77;;;1.63;;
9260;SDS011;4667;42.726;23.252;2022-10-16T12:55:27;2.20;;;1.70;;
9260;SDS011;4667;42.726;23.252;2022-10-16T12:58:05;1.42;;;1.30;;
9260;SDS011;4667;42.726;23.252;2022-10-16T13:00:42;2.50;;;1.70;;
9260;SDS011;4667;42.726;23.252;2022-10-16T13:03:22;2.33;;;1.73;;
9260;SDS011;4667;42.726;23.252;2022-10-16T13:06:00;1.50;;;1.40;;
9260;SDS011;4667;42.726;23.252;2022-10-16T13:08:42;2.28;;;1.77;;
9260;SDS011;4667;42.726;23.252;2022-10-16T13:11:20;1.20;;;1.10;;
9260;SDS011;4667;42.726;23.252;2022-10-16T13:16:49;2.42;;;1.25;;
9260;SDS011;4667;42.726;23.252;2022-10-16T13:19:25;1.42;;;0.93;;
9260;SDS011;4667;42.726;23.252;2022-10-16T13:21:58;2.20;;;1.50;;
9260;SDS011;4667;42.726;23.252;2022-10-16T13:24:39;1.45;;;1.20;;
9260;SDS011;4667;42.726;23.252;2022-10-16T13:27:18;2.50;;;1.60;;
9260;SDS011;4667;42.726;23.252;2022-10-16T13:30:00;1.77;;;1.30;;
9260;SDS011;4667;42.726;23.252;2022-10-16T13:32:35;1.40;;;1.30;;
9260;SDS011;4667;42.726;23.252;2022-10-16T13:35:15;1.33;;;1.10;;
9260;SDS011;4667;42.726;23.252;2022-10-16T13:37:45;1.40;;;1.30;;
9260;SDS011;4667;42.726;23.252;2022-10-16T13:40:17;2.25;;;1.48;;
9260;SDS011;4667;42.726;23.252;2022-10-16T13:42:45;2.38;;;1.77;;
9260;SDS011;4667;42.726;23.252;2022-10-16T13:45:19;7.32;;;2.65;;
9260;SDS011;4667;42.726;23.252;2022-10-16T13:47:50;4.53;;;1.48;;
9260;SDS011;4667;42.726;23.252;2022-10-16T13:50:27;1.90;;;1.50;;
9260;SDS011;4667;42.726;23.252;2022-10-16T13:53:02;2.10;;;1.20;;
9260;SDS011;4667;42.726;23.252;2022-10-16T13:55:31;2.80;;;1.23;;
9260;SDS011;4667;42.726;23.252;2022-10-16T13:58:04;1.58;;;1.25;;
9260;SDS011;4667;42.726;23.252;2022-10-16T14:00:31;1.92;;;1.30;;
9260;SDS011;4667;42.726;23.252;2022-10-16T14:03:00;1.83;;;1.30;;
9260;SDS011;4667;42.726;23.252;2022-10-16T14:05:28;3.50;;;1.73;;
9260;SDS011;4667;42.726;23.252;2022-10-16T14:07:55;1.90;;;1.20;;
9260;SDS011;4667;42.726;23.252;2022-10-16T14:10:24;2.85;;;1.67;;
9260;SDS011;4667;42.726;23.252;2022-10-16T14:12:59;1.63;;;1.42;;
9260;SDS011;4667;42.726;23.252;2022-10-16T14:15:27;1.73;;;1.30;;
9260;SDS011;4667;42.726;23.252;2022-10-16T14:17:56;2.17;;;1.35;;
9260;SDS011;4667;42.726;23.252;2022-10-16T14:20:26;2.28;;;1.60;;
9260;SDS011;4667;42.726;23.252;2022-10-16T14:23:00;2.00;;;1.50;;
9260;SDS011;4667;42.726;23.252;2022-10-16T14:25:31;1.70;;;1.38;;
9260;SDS011;4667;42.726;23.252;2022-10-16T14:30:50;4.13;;;1.60;;
9260;SDS011;4667;42.726;23.252;2022-10-16T14:33:23;2.25;;;1.88;;
9260;SDS011;4667;42.726;23.252;2022-10-16T14:36:02;2.00;;;1.15;;
9260;SDS011;4667;42.726;23.252;2022-10-16T14:38:31;1.85;;;1.30;;
9260;SDS011;4667;42.726;23.252;2022-10-16T14:41:00;1.60;;;1.50;;
9260;SDS011;4667;42.726;23.252;2022-10-16T14:43:31;1.25;;;1.10;;
9260;SDS011;4667;42.726;23.252;2022-10-16T14:46:01;2.00;;;1.50;;
9260;SDS011;4667;42.726;23.252;2022-10-16T14:48:29;2.00;;;1.50;;
9260;SDS011;4667;42.726;23.252;2022-10-16T14:50:58;2.40;;;1.67;;
9260;SDS011;4667;42.726;23.252;2022-10-16T14:53:25;3.33;;;1.90;;
9260;SDS011;4667;42.726;23.252;2022-10-16T14:55:59;1.75;;;1.52;;
9260;SDS011;4667;42.726;23.252;2022-10-16T14:58:46;1.70;;;1.60;;
9260;SDS011;4667;42.726;23.252;2022-10-16T15:01:31;2.03;;;1.33;;
9260;SDS011;4667;42.726;23.252;2022-10-16T15:04:08;2.50;;;1.77;;
9260;SDS011;4667;42.726;23.252;2022-10-16T15:06:59;2.67;;;1.50;;
9260;SDS011;4667;42.726;23.252;2022-10-16T15:09:28;2.80;;;1.90;;
9260;SDS011;4667;42.726;23.252;2022-10-16T15:11:55;2.70;;;1.93;;
9260;SDS011;4667;42.726;23.252;2022-10-16T15:14:26;1.50;;;1.27;;
9260;SDS011;4667;42.726;23.252;2022-10-16T15:16:53;2.07;;;1.83;;
9260;SDS011;4667;42.726;23.252;2022-10-16T15:19:20;3.37;;;2.10;;
9260;SDS011;4667;42.726;23.252;2022-10-16T15:21:47;4.17;;;2.33;;
9260;SDS011;4667;42.726;23.252;2022-10-16T15:24:15;2.87;;;1.97;;
9260;SDS011;4667;42.726;23.252;2022-10-16T15:26:42;4.17;;;2.73;;
9260;SDS011;4667;42.726;23.252;2022-10-16T15:29:11;2.33;;;2.10;;
9260;SDS011;4667;42.726;23.252;2022-10-16T15:31:39;4.27;;;2.83;;
9260;SDS011;4667;42.726;23.252;2022-10-16T15:34:07;2.30;;;2.00;;
9260;SDS011;4667;42.726;23.252;2022-10-16T15:36:35;2.10;;;1.90;;
9260;SDS011;4667;42.726;23.252;2022-10-16T15:39:04;2.37;;;2.07;;
9260;SDS011;4667;42.726;23.252;2022-10-16T15:41:34;3.90;;;2.00;;